sensor_id;sensor_type;location;lat;lon;timestamp;temperature;humidity
16441;DHT22;8330;-33.858;151.184;2024-01-11T00:00:48;28.10;99.90
16441;DHT22;8330;-33.858;151.184;2024-01-11T00:03:19;28.20;99.90
16441;DHT22;8330;-33.858;151.184;2024-01-11T00:05:51;28.40;99.90
16441;DHT22;8330;-33.858;151.184;2024-01-11T00:08:22;28.50;99.90
16441;DHT22;8330;-33.858;151.184;2024-01-11T00:10:53;28.60;99.90
16441;DHT22;8330;-33.858;151.184;2024-01-11T00:13:24;28.70;99.90
16441;DHT22;8330;-33.858;151.184;2024-01-11T00:15:55;28.70;99.90
16441;DHT22;8330;-33.858;151.184;2024-01-11T00:18:25;28.90;99.90
16441;DHT22;8330;-33.858;151.184;2024-01-11T00:20:58;28.90;99.90
16441;DHT22;8330;-33.858;151.184;2024-01-11T00:23:29;28.90;99.90
16441;DHT22;8330;-33.858;151.184;2024-01-11T00:26:00;29.00;99.90
16441;DHT22;8330;-33.858;151.184;2024-01-11T00:28:31;29.10;99.90
16441;DHT22;8330;-33.858;151.184;2024-01-11T00:31:01;29.10;99.90
16441;DHT22;8330;-33.858;151.184;2024-01-11T00:33:32;29.30;99.90
16441;DHT22;8330;-33.858;151.184;2024-01-11T00:36:05;29.20;99.90
16441;DHT22;8330;-33.858;151.184;2024-01-11T00:38:36;29.20;99.90
16441;DHT22;8330;-33.858;151.184;2024-01-11T00:41:07;29.30;99.90
16441;DHT22;8330;-33.858;151.184;2024-01-11T00:43:38;29.30;99.90
16441;DHT22;8330;-33.858;151.184;2024-01-11T00:46:08;29.20;99.90
16441;DHT22;8330;-33.858;151.184;2024-01-11T00:48:40;29.30;99.90
16441;DHT22;8330;-33.858;151.184;2024-01-11T00:51:12;29.20;99.90
16441;DHT22;8330;-33.858;151.184;2024-01-11T00:53:43;29.30;99.90
16441;DHT22;8330;-33.858;151.184;2024-01-11T00:56:17;29.20;99.90
16441;DHT22;8330;-33.858;151.184;2024-01-11T00:58:48;29.00;99.90
16441;DHT22;8330;-33.858;151.184;2024-01-11T01:01:19;29.00;99.90
16441;DHT22;8330;-33.858;151.184;2024-01-11T01:03:49;28.80;99.90
16441;DHT22;8330;-33.858;151.184;2024-01-11T01:06:22;28.80;99.90
16441;DHT22;8330;-33.858;151.184;2024-01-11T01:08:54;28.90;99.90
16441;DHT22;8330;-33.858;151.184;2024-01-11T01:11:24;28.90;99.90
16441;DHT22;8330;-33.858;151.184;2024-01-11T01:13:55;28.90;99.90
16441;DHT22;8330;-33.858;151.184;2024-01-11T01:16:26;28.80;99.90
16441;DHT22;8330;-33.858;151.184;2024-01-11T01:18:57;28.70;99.90
16441;DHT22;8330;-33.858;151.184;2024-01-11T01:21:30;28.70;99.90
16441;DHT22;8330;-33.858;151.184;2024-01-11T01:24:00;28.60;99.90
16441;DHT22;8330;-33.858;151.184;2024-01-11T01:26:31;28.60;99.90
16441;DHT22;8330;-33.858;151.184;2024-01-11T01:29:02;28.60;99.90
16441;DHT22;8330;-33.858;151.184;2024-01-11T01:31:33;28.60;99.90
16441;DHT22;8330;-33.858;151.184;2024-01-11T01:34:05;28.60;99.90
16441;DHT22;8330;-33.858;151.184;2024-01-11T01:36:38;28.50;99.90
16441;DHT22;8330;-33.858;151.184;2024-01-11T01:39:08;28.50;99.90
16441;DHT22;8330;-33.858;151.184;2024-01-11T01:41:39;28.50;99.90
16441;DHT22;8330;-33.858;151.184;2024-01-11T01:44:10;28.40;99.90
16441;DHT22;8330;-33.858;151.184;2024-01-11T01:46:41;28.40;99.90
16441;DHT22;8330;-33.858;151.184;2024-01-11T01:49:12;28.30;99.90
16441;DHT22;8330;-33.858;151.184;2024-01-11T01:51:48;28.30;99.90
16441;DHT22;8330;-33.858;151.184;2024-01-11T01:54:20;28.40;99.90
16441;DHT22;8330;-33.858;151.184;2024-01-11T01:56:51;28.60;99.90
16441;DHT22;8330;-33.858;151.184;2024-01-11T01:59:24;28.70;99.90
16441;DHT22;8330;-33.858;151.184;2024-01-11T02:01:56;28.80;99.90
16441;DHT22;8330;-33.858;151.184;2024-01-11T02:04:28;28.80;99.90
16441;DHT22;8330;-33.858;151.184;2024-01-11T02:07:01;28.80;99.90
16441;DHT22;8330;-33.858;151.184;2024-01-11T02:09:32;28.90;99.90
16441;DHT22;8330;-33.858;151.184;2024-01-11T02:12:07;29.00;99.90
16441;DHT22;8330;-33.858;151.184;2024-01-11T02:14:40;29.00;99.90
16441;DHT22;8330;-33.858;151.184;2024-01-11T02:17:34;29.10;99.90
16441;DHT22;8330;-33.858;151.184;2024-01-11T02:20:22;28.90;99.90
16441;DHT22;8330;-33.858;151.184;2024-01-11T02:22:58;29.00;99.90
16441;DHT22;8330;-33.858;151.184;2024-01-11T02:25:32;28.90;99.90
16441;DHT22;8330;-33.858;151.184;2024-01-11T02:28:02;28.90;99.90
16441;DHT22;8330;-33.858;151.184;2024-01-11T02:30:33;28.70;99.90
16441;DHT22;8330;-33.858;151.184;2024-01-11T02:33:04;28.60;99.90
16441;DHT22;8330;-33.858;151.184;2024-01-11T02:35:35;28.40;99.90
16441;DHT22;8330;-33.858;151.184;2024-01-11T02:38:09;28.40;99.90
16441;DHT22;8330;-33.858;151.184;2024-01-11T02:40:41;28.40;99.90
16441;DHT22;8330;-33.858;151.184;2024-01-11T02:43:13;28.50;99.90
16441;DHT22;8330;-33.858;151.184;2024-01-11T02:45:44;28.50;99.90
16441;DHT22;8330;-33.858;151.184;2024-01-11T02:48:15;28.50;99.90
16441;DHT22;8330;-33.858;151.184;2024-01-11T02:50:45;28.40;99.90
16441;DHT22;8330;-33.858;151.184;2024-01-11T02:53:16;28.50;99.90
16441;DHT22;8330;-33.858;151.184;2024-01-11T02:55:49;28.50;99.90
16441;DHT22;8330;-33.858;151.184;2024-01-11T02:58:22;28.50;99.90
16441;DHT22;8330;-33.858;151.184;2024-01-11T03:00:53;28.50;99.90
16441;DHT22;8330;-33.858;151.184;2024-01-11T03:03:23;28.40;99.90
16441;DHT22;8330;-33.858;151.184;2024-01-11T03:05:54;28.40;99.90
16441;DHT22;8330;-33.858;151.184;2024-01-11T03:08:25;28.40;99.90
16441;DHT22;8330;-33.858;151.184;2024-01-11T03:10:58;28.30;99.90
16441;DHT22;8330;-33.858;151.184;2024-01-11T03:13:29;28.30;99.90
16441;DHT22;8330;-33.858;151.184;2024-01-11T03:16:00;28.30;99.90
16441;DHT22;8330;-33.858;151.184;2024-01-11T03:18:34;28.40;99.90
16441;DHT22;8330;-33.858;151.184;2024-01-11T03:21:05;28.50;99.90
16441;DHT22;8330;-33.858;151.184;2024-01-11T03:23:35;28.50;99.90
16441;DHT22;8330;-33.858;151.184;2024-01-11T03:26:13;28.60;99.90
16441;DHT22;8330;-33.858;151.184;2024-01-11T03:28:44;28.60;99.90
16441;DHT22;8330;-33.858;151.184;2024-01-11T03:31:15;28.90;99.90
16441;DHT22;8330;-33.858;151.184;2024-01-11T03:33:45;29.00;99.90
16441;DHT22;8330;-33.858;151.184;2024-01-11T03:36:16;29.20;99.90
16441;DHT22;8330;-33.858;151.184;2024-01-11T03:38:47;29.20;99.90
16441;DHT22;8330;-33.858;151.184;2024-01-11T03:41:20;29.10;99.90
16441;DHT22;8330;-33.858;151.184;2024-01-11T03:43:51;29.10;99.90
16441;DHT22;8330;-33.858;151.184;2024-01-11T03:46:21;29.10;99.90
16441;DHT22;8330;-33.858;151.184;2024-01-11T03:48:52;29.10;99.90
16441;DHT22;8330;-33.858;151.184;2024-01-11T03:51:23;29.00;99.90
16441;DHT22;8330;-33.858;151.184;2024-01-11T03:53:54;29.00;99.90
16441;DHT22;8330;-33.858;151.184;2024-01-11T03:56:26;29.10;99.90
16441;DHT22;8330;-33.858;151.184;2024-01-11T03:58:58;29.10;99.90
16441;DHT22;8330;-33.858;151.184;2024-01-11T04:01:28;29.10;99.90
16441;DHT22;8330;-33.858;151.184;2024-01-11T04:03:59;29.20;99.90
16441;DHT22;8330;-33.858;151.184;2024-01-11T04:06:34;29.30;99.90
16441;DHT22;8330;-33.858;151.184;2024-01-11T04:09:06;29.50;99.90
16441;DHT22;8330;-33.858;151.184;2024-01-11T04:11:38;29.70;99.90
16441;DHT22;8330;-33.858;151.184;2024-01-11T04:14:09;29.80;99.90
16441;DHT22;8330;-33.858;151.184;2024-01-11T04:16:41;29.80;99.90
16441;DHT22;8330;-33.858;151.184;2024-01-11T04:19:12;29.70;99.90
16441;DHT22;8330;-33.858;151.184;2024-01-11T04:21:43;29.70;99.90
16441;DHT22;8330;-33.858;151.184;2024-01-11T04:24:13;29.60;99.90
16441;DHT22;8330;-33.858;151.184;2024-01-11T04:26:46;29.60;99.90
16441;DHT22;8330;-33.858;151.184;2024-01-11T04:29:17;29.50;99.90
16441;DHT22;8330;-33.858;151.184;2024-01-11T04:31:55;29.40;99.90
16441;DHT22;8330;-33.858;151.184;2024-01-11T04:34:26;29.50;99.90
16441;DHT22;8330;-33.858;151.184;2024-01-11T04:36:57;29.50;99.90
16441;DHT22;8330;-33.858;151.184;2024-01-11T04:39:28;29.50;99.90
16441;DHT22;8330;-33.858;151.184;2024-01-11T04:42:03;29.50;99.90
16441;DHT22;8330;-33.858;151.184;2024-01-11T04:44:39;29.50;99.90
16441;DHT22;8330;-33.858;151.184;2024-01-11T04:47:11;29.50;99.90
16441;DHT22;8330;-33.858;151.184;2024-01-11T04:49:42;29.60;99.90
16441;DHT22;8330;-33.858;151.184;2024-01-11T04:52:13;29.60;99.90
16441;DHT22;8330;-33.858;151.184;2024-01-11T04:54:44;29.60;99.90
16441;DHT22;8330;-33.858;151.184;2024-01-11T04:57:16;29.60;99.90
16441;DHT22;8330;-33.858;151.184;2024-01-11T04:59:47;29.80;99.90
16441;DHT22;8330;-33.858;151.184;2024-01-11T05:02:18;29.90;99.90
16441;DHT22;8330;-33.858;151.184;2024-01-11T05:04:50;30.00;99.90
16441;DHT22;8330;-33.858;151.184;2024-01-11T05:07:21;30.20;99.90
16441;DHT22;8330;-33.858;151.184;2024-01-11T05:09:52;30.40;99.90
16441;DHT22;8330;-33.858;151.184;2024-01-11T05:12:24;30.40;99.90
16441;DHT22;8330;-33.858;151.184;2024-01-11T05:14:55;30.40;99.90
16441;DHT22;8330;-33.858;151.184;2024-01-11T05:17:26;30.30;99.90
16441;DHT22;8330;-33.858;151.184;2024-01-11T05:19:57;30.10;99.90
16441;DHT22;8330;-33.858;151.184;2024-01-11T05:22:28;30.00;99.90
16441;DHT22;8330;-33.858;151.184;2024-01-11T05:24:58;30.10;99.90
16441;DHT22;8330;-33.858;151.184;2024-01-11T05:27:31;30.20;99.90
16441;DHT22;8330;-33.858;151.184;2024-01-11T05:30:02;30.20;99.90
16441;DHT22;8330;-33.858;151.184;2024-01-11T05:32:33;30.50;99.90
16441;DHT22;8330;-33.858;151.184;2024-01-11T05:35:06;30.70;99.90
16441;DHT22;8330;-33.858;151.184;2024-01-11T05:37:38;30.70;99.90
16441;DHT22;8330;-33.858;151.184;2024-01-11T05:40:09;30.90;99.90
16441;DHT22;8330;-33.858;151.184;2024-01-11T05:42:42;30.80;99.90
16441;DHT22;8330;-33.858;151.184;2024-01-11T05:45:12;30.70;99.90
16441;DHT22;8330;-33.858;151.184;2024-01-11T05:47:44;30.60;99.90
16441;DHT22;8330;-33.858;151.184;2024-01-11T05:50:16;30.50;99.90
16441;DHT22;8330;-33.858;151.184;2024-01-11T05:52:46;30.30;99.90
16441;DHT22;8330;-33.858;151.184;2024-01-11T05:55:17;30.10;99.90
16441;DHT22;8330;-33.858;151.184;2024-01-11T05:57:50;29.90;99.90
16441;DHT22;8330;-33.858;151.184;2024-01-11T06:00:21;29.90;99.90
16441;DHT22;8330;-33.858;151.184;2024-01-11T06:02:52;29.80;99.90
16441;DHT22;8330;-33.858;151.184;2024-01-11T06:05:22;29.80;99.90
16441;DHT22;8330;-33.858;151.184;2024-01-11T06:07:54;29.70;99.90
16441;DHT22;8330;-33.858;151.184;2024-01-11T06:10:24;29.60;99.90
16441;DHT22;8330;-33.858;151.184;2024-01-11T06:12:57;29.50;99.90
16441;DHT22;8330;-33.858;151.184;2024-01-11T06:15:28;29.50;99.90
16441;DHT22;8330;-33.858;151.184;2024-01-11T06:17:59;29.40;99.90
16441;DHT22;8330;-33.858;151.184;2024-01-11T06:20:30;29.40;99.90
16441;DHT22;8330;-33.858;151.184;2024-01-11T06:23:00;29.40;99.90
16441;DHT22;8330;-33.858;151.184;2024-01-11T06:25:31;29.30;99.90
16441;DHT22;8330;-33.858;151.184;2024-01-11T06:28:04;29.40;99.90
16441;DHT22;8330;-33.858;151.184;2024-01-11T06:30:37;29.50;99.90
16441;DHT22;8330;-33.858;151.184;2024-01-11T06:33:08;29.80;99.90
16441;DHT22;8330;-33.858;151.184;2024-01-11T06:35:39;30.00;99.90
16441;DHT22;8330;-33.858;151.184;2024-01-11T06:38:09;30.30;99.90
16441;DHT22;8330;-33.858;151.184;2024-01-11T06:40:43;30.30;99.90
16441;DHT22;8330;-33.858;151.184;2024-01-11T06:43:16;30.20;99.90
16441;DHT22;8330;-33.858;151.184;2024-01-11T06:45:47;30.00;99.90
16441;DHT22;8330;-33.858;151.184;2024-01-11T06:48:17;29.90;99.90
16441;DHT22;8330;-33.858;151.184;2024-01-11T06:50:48;29.70;99.90
16441;DHT22;8330;-33.858;151.184;2024-01-11T06:53:19;29.60;99.90
16441;DHT22;8330;-33.858;151.184;2024-01-11T06:55:49;29.80;99.90
16441;DHT22;8330;-33.858;151.184;2024-01-11T06:58:24;29.90;99.90
16441;DHT22;8330;-33.858;151.184;2024-01-11T07:00:55;29.80;99.90
16441;DHT22;8330;-33.858;151.184;2024-01-11T07:03:26;29.70;99.90
16441;DHT22;8330;-33.858;151.184;2024-01-11T07:05:57;29.50;99.90
16441;DHT22;8330;-33.858;151.184;2024-01-11T07:08:27;29.30;99.90
16441;DHT22;8330;-33.858;151.184;2024-01-11T07:10:58;29.20;99.90
16441;DHT22;8330;-33.858;151.184;2024-01-11T07:13:32;29.10;99.90
16441;DHT22;8330;-33.858;151.184;2024-01-11T07:16:03;29.00;99.90
16441;DHT22;8330;-33.858;151.184;2024-01-11T07:18:34;28.90;99.90
16441;DHT22;8330;-33.858;151.184;2024-01-11T07:21:05;28.80;99.90
16441;DHT22;8330;-33.858;151.184;2024-01-11T07:23:36;28.70;99.90
16441;DHT22;8330;-33.858;151.184;2024-01-11T07:26:07;28.60;99.90
16441;DHT22;8330;-33.858;151.184;2024-01-11T07:28:39;28.60;99.90
16441;DHT22;8330;-33.858;151.184;2024-01-11T07:31:11;28.60;99.90
16441;DHT22;8330;-33.858;151.184;2024-01-11T07:33:42;28.90;99.90
16441;DHT22;8330;-33.858;151.184;2024-01-11T07:36:13;29.20;99.90
16441;DHT22;8330;-33.858;151.184;2024-01-11T07:38:43;29.60;99.90
16441;DHT22;8330;-33.858;151.184;2024-01-11T07:41:14;29.90;99.90
16441;DHT22;8330;-33.858;151.184;2024-01-11T07:43:47;30.30;99.90
16441;DHT22;8330;-33.858;151.184;2024-01-11T07:46:18;30.10;99.90
16441;DHT22;8330;-33.858;151.184;2024-01-11T07:48:48;29.90;99.90
16441;DHT22;8330;-33.858;151.184;2024-01-11T07:51:19;29.70;99.90
16441;DHT22;8330;-33.858;151.184;2024-01-11T07:53:50;29.50;99.90
16441;DHT22;8330;-33.858;151.184;2024-01-11T07:56:20;29.40;99.90
16441;DHT22;8330;-33.858;151.184;2024-01-11T07:58:53;29.30;99.90
16441;DHT22;8330;-33.858;151.184;2024-01-11T08:01:24;29.10;99.90
16441;DHT22;8330;-33.858;151.184;2024-01-11T08:03:54;29.00;99.90
16441;DHT22;8330;-33.858;151.184;2024-01-11T08:06:25;28.80;99.90
16441;DHT22;8330;-33.858;151.184;2024-01-11T08:08:56;28.70;99.90
16441;DHT22;8330;-33.858;151.184;2024-01-11T08:11:27;28.70;99.90
16441;DHT22;8330;-33.858;151.184;2024-01-11T08:14:00;28.60;99.90
16441;DHT22;8330;-33.858;151.184;2024-01-11T08:16:30;28.60;99.90
16441;DHT22;8330;-33.858;151.184;2024-01-11T08:19:01;28.60;99.90
16441;DHT22;8330;-33.858;151.184;2024-01-11T08:21:32;28.50;99.90
16441;DHT22;8330;-33.858;151.184;2024-01-11T08:24:02;28.50;99.90
16441;DHT22;8330;-33.858;151.184;2024-01-11T08:26:34;28.50;99.90
16441;DHT22;8330;-33.858;151.184;2024-01-11T08:29:07;28.40;99.90
16441;DHT22;8330;-33.858;151.184;2024-01-11T08:31:38;28.30;99.90
16441;DHT22;8330;-33.858;151.184;2024-01-11T08:34:08;28.30;99.90
16441;DHT22;8330;-33.858;151.184;2024-01-11T08:36:39;28.20;99.90
16441;DHT22;8330;-33.858;151.184;2024-01-11T08:39:10;28.10;99.90
16441;DHT22;8330;-33.858;151.184;2024-01-11T08:41:44;28.10;99.90
16441;DHT22;8330;-33.858;151.184;2024-01-11T08:44:17;28.00;99.90
16441;DHT22;8330;-33.858;151.184;2024-01-11T08:46:48;28.00;99.90
16441;DHT22;8330;-33.858;151.184;2024-01-11T08:49:18;27.90;99.90
16441;DHT22;8330;-33.858;151.184;2024-01-11T08:51:49;27.80;99.90
16441;DHT22;8330;-33.858;151.184;2024-01-11T08:54:20;27.80;99.90
16441;DHT22;8330;-33.858;151.184;2024-01-11T08:56:51;27.80;99.90
16441;DHT22;8330;-33.858;151.184;2024-01-11T08:59:23;27.80;99.90
16441;DHT22;8330;-33.858;151.184;2024-01-11T09:01:54;27.80;99.90
16441;DHT22;8330;-33.858;151.184;2024-01-11T09:04:25;27.80;99.90
16441;DHT22;8330;-33.858;151.184;2024-01-11T09:06:57;27.80;99.90
16441;DHT22;8330;-33.858;151.184;2024-01-11T09:09:28;27.70;99.90
16441;DHT22;8330;-33.858;151.184;2024-01-11T09:11:59;27.70;99.90
16441;DHT22;8330;-33.858;151.184;2024-01-11T09:14:32;27.70;99.90
16441;DHT22;8330;-33.858;151.184;2024-01-11T09:17:03;27.70;99.90
16441;DHT22;8330;-33.858;151.184;2024-01-11T09:19:34;27.70;99.90
16441;DHT22;8330;-33.858;151.184;2024-01-11T09:22:05;27.70;99.90
16441;DHT22;8330;-33.858;151.184;2024-01-11T09:24:37;27.70;99.90
16441;DHT22;8330;-33.858;151.184;2024-01-11T09:27:08;27.70;99.90
16441;DHT22;8330;-33.858;151.184;2024-01-11T09:29:44;27.70;99.90
16441;DHT22;8330;-33.858;151.184;2024-01-11T09:32:15;27.60;99.90
16441;DHT22;8330;-33.858;151.184;2024-01-11T09:34:46;27.60;99.90
16441;DHT22;8330;-33.858;151.184;2024-01-11T09:37:22;27.60;99.90
16441;DHT22;8330;-33.858;151.184;2024-01-11T09:39:53;27.50;99.90
16441;DHT22;8330;-33.858;151.184;2024-01-11T09:42:24;27.40;99.90
16441;DHT22;8330;-33.858;151.184;2024-01-11T09:45:12;27.40;99.90
16441;DHT22;8330;-33.858;151.184;2024-01-11T09:47:44;27.30;99.90
16441;DHT22;8330;-33.858;151.184;2024-01-11T09:50:17;27.30;99.90
16441;DHT22;8330;-33.858;151.184;2024-01-11T09:52:49;27.20;99.90
16441;DHT22;8330;-33.858;151.184;2024-01-11T09:55:22;27.20;99.90
16441;DHT22;8330;-33.858;151.184;2024-01-11T10:05:11;27.10;99.90
16441;DHT22;8330;-33.858;151.184;2024-01-11T10:07:46;27.00;99.90
16441;DHT22;8330;-33.858;151.184;2024-01-11T10:10:28;27.00;99.90
16441;DHT22;8330;-33.858;151.184;2024-01-11T10:12:59;27.10;99.90
16441;DHT22;8330;-33.858;151.184;2024-01-11T10:16:06;27.00;99.90
16441;DHT22;8330;-33.858;151.184;2024-01-11T10:21:59;27.00;99.90
16441;DHT22;8330;-33.858;151.184;2024-01-11T10:24:57;27.00;99.90
16441;DHT22;8330;-33.858;151.184;2024-01-11T10:28:01;27.00;99.90
16441;DHT22;8330;-33.858;151.184;2024-01-11T10:30:55;27.00;
16441;DHT22;8330;-33.858;151.184;2024-01-11T10:33:51;27.00;99.90
16441;DHT22;8330;-33.858;151.184;2024-01-11T10:36:35;27.00;99.90
16441;DHT22;8330;-33.858;151.184;2024-01-11T10:42:25;27.00;99.90
16441;DHT22;8330;-33.858;151.184;2024-01-11T10:51:21;27.00;99.90
16441;DHT22;8330;-33.858;151.184;2024-01-11T10:54:11;27.00;99.90
16441;DHT22;8330;-33.858;151.184;2024-01-11T11:00:00;27.00;99.90
16441;DHT22;8330;-33.858;151.184;2024-01-11T11:02:43;26.90;99.90
16441;DHT22;8330;-33.858;151.184;2024-01-11T11:05:15;26.90;99.90
16441;DHT22;8330;-33.858;151.184;2024-01-11T11:07:58;26.90;99.90
16441;DHT22;8330;-33.858;151.184;2024-01-11T11:10:38;26.80;99.90
16441;DHT22;8330;-33.858;151.184;2024-01-11T11:13:15;26.80;99.90
16441;DHT22;8330;-33.858;151.184;2024-01-11T11:15:49;26.80;99.90
16441;DHT22;8330;-33.858;151.184;2024-01-11T11:18:20;26.80;99.90
16441;DHT22;8330;-33.858;151.184;2024-01-11T11:20:51;26.80;99.90
16441;DHT22;8330;-33.858;151.184;2024-01-11T11:23:22;26.80;99.90
16441;DHT22;8330;-33.858;151.184;2024-01-11T11:25:55;26.70;99.90
16441;DHT22;8330;-33.858;151.184;2024-01-11T11:28:27;26.70;99.90
16441;DHT22;8330;-33.858;151.184;2024-01-11T11:31:01;26.70;99.90
16441;DHT22;8330;-33.858;151.184;2024-01-11T11:33:32;26.60;99.90
16441;DHT22;8330;-33.858;151.184;2024-01-11T11:36:04;26.60;99.90
16441;DHT22;8330;-33.858;151.184;2024-01-11T11:38:36;26.60;99.90
16441;DHT22;8330;-33.858;151.184;2024-01-11T11:41:08;26.60;99.90
16441;DHT22;8330;-33.858;151.184;2024-01-11T11:43:41;26.60;99.90
16441;DHT22;8330;-33.858;151.184;2024-01-11T11:46:13;26.60;99.90
16441;DHT22;8330;-33.858;151.184;2024-01-11T11:48:51;26.50;99.90
16441;DHT22;8330;-33.858;151.184;2024-01-11T11:51:22;26.50;99.90
16441;DHT22;8330;-33.858;151.184;2024-01-11T11:53:54;26.50;99.90
16441;DHT22;8330;-33.858;151.184;2024-01-11T11:56:28;26.50;99.90
16441;DHT22;8330;-33.858;151.184;2024-01-11T11:58:59;26.50;99.90
16441;DHT22;8330;-33.858;151.184;2024-01-11T12:01:33;26.60;99.90
16441;DHT22;8330;-33.858;151.184;2024-01-11T12:04:05;26.50;99.90
16441;DHT22;8330;-33.858;151.184;2024-01-11T12:06:38;26.40;99.90
16441;DHT22;8330;-33.858;151.184;2024-01-11T12:09:09;26.40;99.90
16441;DHT22;8330;-33.858;151.184;2024-01-11T12:11:40;26.40;99.90
16441;DHT22;8330;-33.858;151.184;2024-01-11T12:14:11;26.40;99.90
16441;DHT22;8330;-33.858;151.184;2024-01-11T12:16:44;26.50;99.90
16441;DHT22;8330;-33.858;151.184;2024-01-11T12:19:15;26.50;99.90
16441;DHT22;8330;-33.858;151.184;2024-01-11T12:21:47;26.50;99.90
16441;DHT22;8330;-33.858;151.184;2024-01-11T12:24:18;26.50;99.90
16441;DHT22;8330;-33.858;151.184;2024-01-11T12:26:49;26.50;99.90
16441;DHT22;8330;-33.858;151.184;2024-01-11T12:29:21;26.40;99.90
16441;DHT22;8330;-33.858;151.184;2024-01-11T12:31:54;26.40;99.90
16441;DHT22;8330;-33.858;151.184;2024-01-11T12:34:26;26.50;99.90
16441;DHT22;8330;-33.858;151.184;2024-01-11T12:36:58;26.40;99.90
16441;DHT22;8330;-33.858;151.184;2024-01-11T12:39:33;26.40;99.90
16441;DHT22;8330;-33.858;151.184;2024-01-11T12:42:04;26.40;99.90
16441;DHT22;8330;-33.858;151.184;2024-01-11T12:44:35;26.40;99.90
16441;DHT22;8330;-33.858;151.184;2024-01-11T12:47:13;26.40;99.90
16441;DHT22;8330;-33.858;151.184;2024-01-11T12:49:45;26.30;99.90
16441;DHT22;8330;-33.858;151.184;2024-01-11T12:52:17;26.40;99.90
16441;DHT22;8330;-33.858;151.184;2024-01-11T12:54:51;26.30;99.90
16441;DHT22;8330;-33.858;151.184;2024-01-11T12:57:24;26.30;99.90
16441;DHT22;8330;-33.858;151.184;2024-01-11T12:59:55;26.30;99.90
16441;DHT22;8330;-33.858;151.184;2024-01-11T13:02:41;26.30;99.90
16441;DHT22;8330;-33.858;151.184;2024-01-11T13:05:14;26.30;99.90
16441;DHT22;8330;-33.858;151.184;2024-01-11T13:07:46;26.30;99.90
16441;DHT22;8330;-33.858;151.184;2024-01-11T13:10:17;26.30;99.90
16441;DHT22;8330;-33.858;151.184;2024-01-11T13:12:48;26.30;99.90
16441;DHT22;8330;-33.858;151.184;2024-01-11T13:15:19;26.30;99.90
16441;DHT22;8330;-33.858;151.184;2024-01-11T13:17:53;26.30;99.90
16441;DHT22;8330;-33.858;151.184;2024-01-11T13:20:23;26.30;99.90
16441;DHT22;8330;-33.858;151.184;2024-01-11T13:23:12;26.30;99.90
16441;DHT22;8330;-33.858;151.184;2024-01-11T13:25:44;26.30;99.90
16441;DHT22;8330;-33.858;151.184;2024-01-11T13:28:15;26.40;99.90
16441;DHT22;8330;-33.858;151.184;2024-01-11T13:30:47;26.30;99.90
16441;DHT22;8330;-33.858;151.184;2024-01-11T13:33:20;26.30;99.90
16441;DHT22;8330;-33.858;151.184;2024-01-11T13:35:51;26.30;99.90
16441;DHT22;8330;-33.858;151.184;2024-01-11T13:38:22;26.30;99.90
16441;DHT22;8330;-33.858;151.184;2024-01-11T13:40:53;26.30;99.90
16441;DHT22;8330;-33.858;151.184;2024-01-11T13:43:23;26.30;99.90
16441;DHT22;8330;-33.858;151.184;2024-01-11T13:45:54;26.30;99.90
16441;DHT22;8330;-33.858;151.184;2024-01-11T13:48:27;26.30;99.90
16441;DHT22;8330;-33.858;151.184;2024-01-11T13:50:59;26.30;99.90
16441;DHT22;8330;-33.858;151.184;2024-01-11T13:53:31;26.20;99.90
16441;DHT22;8330;-33.858;151.184;2024-01-11T13:56:02;26.20;99.90
16441;DHT22;8330;-33.858;151.184;2024-01-11T13:58:33;26.20;99.90
16441;DHT22;8330;-33.858;151.184;2024-01-11T14:01:04;26.20;99.90
16441;DHT22;8330;-33.858;151.184;2024-01-11T14:03:37;26.20;99.90
16441;DHT22;8330;-33.858;151.184;2024-01-11T14:06:08;26.20;99.90
16441;DHT22;8330;-33.858;151.184;2024-01-11T14:08:39;26.20;99.90
16441;DHT22;8330;-33.858;151.184;2024-01-11T14:11:09;26.20;99.90
16441;DHT22;8330;-33.858;151.184;2024-01-11T14:13:40;26.20;99.90
16441;DHT22;8330;-33.858;151.184;2024-01-11T14:16:11;26.20;99.90
16441;DHT22;8330;-33.858;151.184;2024-01-11T14:18:45;26.20;99.90
16441;DHT22;8330;-33.858;151.184;2024-01-11T14:21:17;26.20;99.90
16441;DHT22;8330;-33.858;151.184;2024-01-11T14:23:51;26.20;99.90
16441;DHT22;8330;-33.858;151.184;2024-01-11T14:26:21;26.10;99.90
16441;DHT22;8330;-33.858;151.184;2024-01-11T14:28:52;26.10;99.90
16441;DHT22;8330;-33.858;151.184;2024-01-11T14:31:23;26.10;99.90
16441;DHT22;8330;-33.858;151.184;2024-01-11T14:33:56;26.10;99.90
16441;DHT22;8330;-33.858;151.184;2024-01-11T14:36:27;26.10;99.90
16441;DHT22;8330;-33.858;151.184;2024-01-11T14:38:58;26.10;99.90
16441;DHT22;8330;-33.858;151.184;2024-01-11T14:41:31;26.10;99.90
16441;DHT22;8330;-33.858;151.184;2024-01-11T14:44:02;26.10;99.90
16441;DHT22;8330;-33.858;151.184;2024-01-11T14:46:33;26.10;99.90
16441;DHT22;8330;-33.858;151.184;2024-01-11T14:49:06;26.00;99.90
16441;DHT22;8330;-33.858;151.184;2024-01-11T14:51:37;26.10;99.90
16441;DHT22;8330;-33.858;151.184;2024-01-11T14:54:07;26.00;99.90
16441;DHT22;8330;-33.858;151.184;2024-01-11T14:56:38;26.10;99.90
16441;DHT22;8330;-33.858;151.184;2024-01-11T14:59:09;26.10;99.90
16441;DHT22;8330;-33.858;151.184;2024-01-11T15:01:40;26.00;99.90
16441;DHT22;8330;-33.858;151.184;2024-01-11T15:04:13;26.10;99.90
16441;DHT22;8330;-33.858;151.184;2024-01-11T15:06:44;26.00;99.90
16441;DHT22;8330;-33.858;151.184;2024-01-11T15:09:14;26.00;99.90
16441;DHT22;8330;-33.858;151.184;2024-01-11T15:11:45;26.00;99.90
16441;DHT22;8330;-33.858;151.184;2024-01-11T15:14:16;26.00;99.90
16441;DHT22;8330;-33.858;151.184;2024-01-11T15:16:49;26.00;99.90
16441;DHT22;8330;-33.858;151.184;2024-01-11T15:19:22;26.00;99.90
16441;DHT22;8330;-33.858;151.184;2024-01-11T15:21:53;26.00;99.90
16441;DHT22;8330;-33.858;151.184;2024-01-11T15:24:24;26.00;99.90
16441;DHT22;8330;-33.858;151.184;2024-01-11T15:26:56;26.00;99.90
16441;DHT22;8330;-33.858;151.184;2024-01-11T15:29:27;26.10;99.90
16441;DHT22;8330;-33.858;151.184;2024-01-11T15:31:58;26.10;99.90
16441;DHT22;8330;-33.858;151.184;2024-01-11T15:34:30;26.00;99.90
16441;DHT22;8330;-33.858;151.184;2024-01-11T15:37:01;26.00;99.90
16441;DHT22;8330;-33.858;151.184;2024-01-11T15:39:32;26.00;99.90
16441;DHT22;8330;-33.858;151.184;2024-01-11T15:42:03;25.90;99.90
16441;DHT22;8330;-33.858;151.184;2024-01-11T15:44:34;26.00;99.90
16441;DHT22;8330;-33.858;151.184;2024-01-11T15:47:07;25.90;99.90
16441;DHT22;8330;-33.858;151.184;2024-01-11T15:49:40;25.90;99.90
16441;DHT22;8330;-33.858;151.184;2024-01-11T15:52:10;25.90;99.90
16441;DHT22;8330;-33.858;151.184;2024-01-11T15:54:41;26.00;99.90
16441;DHT22;8330;-33.858;151.184;2024-01-11T15:57:12;26.00;99.90